Monday, December 18, 2017, 11:19 AM EST
Back to Local

KMQE, Milton Blue Hill Observ

Location: Milton, MA, United States Lat: 42.217
Local Time: 11:19 AM EST (16:19 GMT) Lon: -71.117
Time Zone: US/Eastern Elev: 629 ft

Show me the last for .
Show Decoded

2017-12-18 10:56 METAR KMQE 181556Z AUTO 15005KT M02/M11 A3006 RMK AO1 SLP197 T10171111 =
2017-12-18 09:56 METAR KMQE 181456Z AUTO 15006KT M03/M13 A3009 RMK AO1 SLP211 T10281128 58014 =
2017-12-18 08:56 METAR KMQE 181356Z AUTO 14005KT M04/M13 A3012 RMK AO1 SLP220 T10391128 =
2017-12-18 07:56 METAR KMQE 181256Z AUTO 15006KT M04/M12 A3013 RMK AO1 SLP222 T10441117 =
2017-12-18 06:56 METAR KMQE 181156Z AUTO 14003KT M05/M12 A3014 RMK AO1 SLP225 T10501122 11050
                 21061 56007 =
2017-12-18 05:56 METAR KMQE 181056Z AUTO 00000KT M05/M12 A3014 RMK AO1 SLP226 T10501122 =
2017-12-18 04:56 METAR KMQE 180956Z AUTO 09006KT M06/M13 A3014 RMK AO1 SLP225 T10561128 =
2017-12-18 03:56 METAR KMQE 180856Z AUTO 06006KT M06/M13 A3016 RMK AO1 SLP232 T10561133 58008 =
2017-12-18 02:56 METAR KMQE 180756Z AUTO 06004KT M06/M14 A3019 RMK AO1 SLP243 T10561139 =
2017-12-18 01:56 METAR KMQE 180656Z AUTO 05005KT M06/M16 A3019 RMK AO1 SLP242 T10561161 =
2017-12-18 00:56 METAR KMQE 180556Z AUTO 00000KT M06/M16 A3018 RMK AO1 SLP240 T10561161 11050
                 21061 56012 =
2017-12-17 23:56 METAR KMQE 180456Z AUTO 33003KT M06/M15 A3020 RMK AO1 SLP245 T10611150 410281094
                 =
2017-12-17 22:56 METAR KMQE 180356Z AUTO 02004KT M06/M16 A3020 RMK AO1 SLP247 T10561161 =
2017-12-17 21:56 METAR KMQE 180256Z AUTO 36005KT M05/M15 A3022 RMK AO1 SLP254 T10501150 58000 =
2017-12-17 20:56 METAR KMQE 180156Z AUTO 31005KT M05/M12 A3023 RMK AO1 SLP257 T10501122 =
2017-12-17 19:56 METAR KMQE 180056Z AUTO 31006KT M06/M11 A3023 RMK AO1 SLP260 T10561106 =
2017-12-17 18:56 METAR KMQE 172356Z AUTO 31006KT M05/M12 A3022 RMK AO1 SLP255 T10501117 11028
                 21056 51009 =
2017-12-17 17:56 METAR KMQE 172256Z AUTO 31006KT M05/M10 A3020 RMK AO1 SLP249 T10501100 =
2017-12-17 16:56 METAR KMQE 172156Z AUTO 29007KT M05/M13 A3021 RMK AO1 SLP251 T10501128 =
2017-12-17 15:56 METAR KMQE 172056Z AUTO 30008KT M04/M13 A3019 RMK AO1 SLP245 T10441128 53005 =
2017-12-17 14:56 METAR KMQE 171956Z AUTO 29007KT M04/M13 A3017 RMK AO1 SLP237 T10391128 =
2017-12-17 13:56 METAR KMQE 171856Z AUTO 30006KT M03/M14 A3017 RMK AO1 SLP237 T10331139 =
2017-12-17 12:56 METAR KMQE 171756Z AUTO VRB06KT M03/M15 A3018 RMK AO1 SLP239 T10331150 11033
                 21094 58014 =
2017-12-17 11:56 METAR KMQE 171656Z AUTO 30010KT M04/M14 A3020 RMK AO1 SLP246 T10391144 =

Support USWX by starting your Amazon purchase here.